sensor_id;sensor_type;location;lat;lon;timestamp;temperature;humidity
78028;DHT22;67235;45.638;11.714;2023-03-03T01:34:31;4.60;71.10
78028;DHT22;67235;45.638;11.714;2023-03-03T01:37:17;4.50;71.00
78028;DHT22;67235;45.638;11.714;2023-03-03T01:40:00;4.50;70.90
78028;DHT22;67235;45.638;11.714;2023-03-03T01:59:51;4.20;71.50
78028;DHT22;67235;45.638;11.714;2023-03-03T02:13:19;4.50;71.80
78028;DHT22;67235;45.638;11.714;2023-03-03T02:42:41;4.30;71.40
78028;DHT22;67235;45.638;11.714;2023-03-03T02:49:24;4.20;71.10
78028;DHT22;67235;45.638;11.714;2023-03-03T03:02:14;4.00;71.00
78028;DHT22;67235;45.638;11.714;2023-03-03T03:39:18;3.70;71.80
78028;DHT22;67235;45.638;11.714;2023-03-03T03:46:13;3.80;71.40
78028;DHT22;67235;45.638;11.714;2023-03-03T03:49:43;3.90;71.40
78028;DHT22;67235;45.638;11.714;2023-03-03T03:52:54;3.80;71.40
78028;DHT22;67235;45.638;11.714;2023-03-03T04:13:05;3.50;71.50
78028;DHT22;67235;45.638;11.714;2023-03-03T04:23:00;3.60;71.30
78028;DHT22;67235;45.638;11.714;2023-03-03T04:26:10;3.30;71.50
78028;DHT22;67235;45.638;11.714;2023-03-03T04:29:15;3.40;71.30
78028;DHT22;67235;45.638;11.714;2023-03-03T04:32:23;3.50;71.30
78028;DHT22;67235;45.638;11.714;2023-03-03T04:42:27;3.40;70.60
78028;DHT22;67235;45.638;11.714;2023-03-03T04:45:33;3.20;70.60
78028;DHT22;67235;45.638;11.714;2023-03-03T04:55:52;3.30;71.40
78028;DHT22;67235;45.638;11.714;2023-03-03T05:18:35;3.00;70.60
78028;DHT22;67235;45.638;11.714;2023-03-03T05:25:06;2.90;71.90
78028;DHT22;67235;45.638;11.714;2023-03-03T05:27:42;3.00;71.80
78028;DHT22;67235;45.638;11.714;2023-03-03T05:30:12;2.60;70.80
78028;DHT22;67235;45.638;11.714;2023-03-03T05:32:56;2.90;71.20
78028;DHT22;67235;45.638;11.714;2023-03-03T05:35:27;2.90;72.00
78028;DHT22;67235;45.638;11.714;2023-03-03T05:38:01;3.00;71.90
78028;DHT22;67235;45.638;11.714;2023-03-03T05:40:46;3.10;71.90
78028;DHT22;67235;45.638;11.714;2023-03-03T05:43:22;3.40;71.90
78028;DHT22;67235;45.638;11.714;2023-03-03T05:45:58;3.10;71.60
78028;DHT22;67235;45.638;11.714;2023-03-03T05:48:32;3.40;71.80
78028;DHT22;67235;45.638;11.714;2023-03-03T05:50:58;3.20;71.70
78028;DHT22;67235;45.638;11.714;2023-03-03T05:54:01;3.40;71.60
78028;DHT22;67235;45.638;11.714;2023-03-03T05:56:34;3.40;71.50
78028;DHT22;67235;45.638;11.714;2023-03-03T05:59:34;3.20;71.20
78028;DHT22;67235;45.638;11.714;2023-03-03T06:02:25;3.30;70.50
78028;DHT22;67235;45.638;11.714;2023-03-03T06:05:30;3.70;71.50
78028;DHT22;67235;45.638;11.714;2023-03-03T06:08:03;4.10;71.30
78028;DHT22;67235;45.638;11.714;2023-03-03T06:11:01;4.40;70.60
78028;DHT22;67235;45.638;11.714;2023-03-03T06:13:52;4.60;69.50
78028;DHT22;67235;45.638;11.714;2023-03-03T06:19:27;5.10;68.80
78028;DHT22;67235;45.638;11.714;2023-03-03T06:32:52;6.60;67.50
78028;DHT22;67235;45.638;11.714;2023-03-03T07:46:33;17.60;38.50
78028;DHT22;67235;45.638;11.714;2023-03-03T07:57:23;19.80;33.20
78028;DHT22;67235;45.638;11.714;2023-03-03T08:02:57;20.40;31.40
78028;DHT22;67235;45.638;11.714;2023-03-03T08:08:29;21.40;28.70
78028;DHT22;67235;45.638;11.714;2023-03-03T08:10:57;21.50;28.40
78028;DHT22;67235;45.638;11.714;2023-03-03T08:13:28;21.60;30.10
78028;DHT22;67235;45.638;11.714;2023-03-03T08:16:29;22.10;27.80
78028;DHT22;67235;45.638;11.714;2023-03-03T08:19:01;21.70;28.70
78028;DHT22;67235;45.638;11.714;2023-03-03T08:21:32;22.20;29.10
78028;DHT22;67235;45.638;11.714;2023-03-03T08:24:18;22.70;27.00
78028;DHT22;67235;45.638;11.714;2023-03-03T08:26:45;22.20;28.10
78028;DHT22;67235;45.638;11.714;2023-03-03T08:29:12;22.00;27.80
78028;DHT22;67235;45.638;11.714;2023-03-03T08:31:38;21.90;28.10
78028;DHT22;67235;45.638;11.714;2023-03-03T08:34:07;21.70;28.70
78028;DHT22;67235;45.638;11.714;2023-03-03T09:09:10;20.50;33.40
78028;DHT22;67235;45.638;11.714;2023-03-03T09:12:08;20.80;34.20
78028;DHT22;67235;45.638;11.714;2023-03-03T09:15:25;21.00;30.00
78028;DHT22;67235;45.638;11.714;2023-03-03T09:26:45;20.80;32.20
78028;DHT22;67235;45.638;11.714;2023-03-03T09:32:36;19.90;32.60
78028;DHT22;67235;45.638;11.714;2023-03-03T09:49:30;18.00;37.60
78028;DHT22;67235;45.638;11.714;2023-03-03T09:52:32;17.60;40.00
78028;DHT22;67235;45.638;11.714;2023-03-03T10:12:32;18.00;39.40
78028;DHT22;67235;45.638;11.714;2023-03-03T10:18:14;18.50;39.50
78028;DHT22;67235;45.638;11.714;2023-03-03T10:20:54;18.30;36.60
78028;DHT22;67235;45.638;11.714;2023-03-03T10:23:54;18.70;37.00
78028;DHT22;67235;45.638;11.714;2023-03-03T10:26:57;18.30;34.70
78028;DHT22;67235;45.638;11.714;2023-03-03T10:37:59;18.60;36.00
78028;DHT22;67235;45.638;11.714;2023-03-03T10:40:38;18.70;36.20
78028;DHT22;67235;45.638;11.714;2023-03-03T10:46:22;19.00;36.90
78028;DHT22;67235;45.638;11.714;2023-03-03T10:55:01;18.80;39.20
78028;DHT22;67235;45.638;11.714;2023-03-03T11:00:45;18.90;36.80
78028;DHT22;67235;45.638;11.714;2023-03-03T11:12:43;19.60;31.80
78028;DHT22;67235;45.638;11.714;2023-03-03T11:15:23;20.00;31.60
78028;DHT22;67235;45.638;11.714;2023-03-03T11:18:14;19.30;32.50
78028;DHT22;67235;45.638;11.714;2023-03-03T11:21:08;19.50;32.90
78028;DHT22;67235;45.638;11.714;2023-03-03T11:24:05;19.50;32.50
78028;DHT22;67235;45.638;11.714;2023-03-03T11:40:21;19.50;29.00
78028;DHT22;67235;45.638;11.714;2023-03-03T11:43:05;20.00;29.70
78028;DHT22;67235;45.638;11.714;2023-03-03T11:45:53;20.70;30.40
78028;DHT22;67235;45.638;11.714;2023-03-03T11:48:56;21.20;27.90
78028;DHT22;67235;45.638;11.714;2023-03-03T11:51:46;21.40;29.30
78028;DHT22;67235;45.638;11.714;2023-03-03T11:54:50;21.40;27.50
78028;DHT22;67235;45.638;11.714;2023-03-03T11:57:29;20.50;29.10
78028;DHT22;67235;45.638;11.714;2023-03-03T12:06:10;20.10;31.90
78028;DHT22;67235;45.638;11.714;2023-03-03T12:11:52;20.30;30.60
78028;DHT22;67235;45.638;11.714;2023-03-03T12:26:01;19.70;30.30
78028;DHT22;67235;45.638;11.714;2023-03-03T12:28:37;19.50;29.50
78028;DHT22;67235;45.638;11.714;2023-03-03T12:34:00;19.80;27.70
78028;DHT22;67235;45.638;11.714;2023-03-03T12:42:41;20.20;31.10
78028;DHT22;67235;45.638;11.714;2023-03-03T12:48:08;20.40;29.30
78028;DHT22;67235;45.638;11.714;2023-03-03T12:51:02;20.40;28.30
78028;DHT22;67235;45.638;11.714;2023-03-03T12:54:01;20.50;27.10
78028;DHT22;67235;45.638;11.714;2023-03-03T12:56:39;19.80;29.00
78028;DHT22;67235;45.638;11.714;2023-03-03T13:02:44;18.70;28.80
78028;DHT22;67235;45.638;11.714;2023-03-03T13:05:34;18.90;31.10
78028;DHT22;67235;45.638;11.714;2023-03-03T13:08:46;18.80;31.10
78028;DHT22;67235;45.638;11.714;2023-03-03T13:11:34;18.60;30.50
78028;DHT22;67235;45.638;11.714;2023-03-03T13:14:26;18.90;30.30
78028;DHT22;67235;45.638;11.714;2023-03-03T13:19:55;19.20;31.20
78028;DHT22;67235;45.638;11.714;2023-03-03T13:25:33;19.30;28.80
78028;DHT22;67235;45.638;11.714;2023-03-03T13:30:49;18.70;32.70
78028;DHT22;67235;45.638;11.714;2023-03-03T13:33:34;18.80;28.80
78028;DHT22;67235;45.638;11.714;2023-03-03T13:36:06;18.80;30.10
78028;DHT22;67235;45.638;11.714;2023-03-03T13:46:40;18.60;31.00
78028;DHT22;67235;45.638;11.714;2023-03-03T13:49:42;18.50;32.30
78028;DHT22;67235;45.638;11.714;2023-03-03T13:52:19;18.60;32.10
78028;DHT22;67235;45.638;11.714;2023-03-03T14:02:59;18.20;32.70
78028;DHT22;67235;45.638;11.714;2023-03-03T14:05:34;18.30;32.90
78028;DHT22;67235;45.638;11.714;2023-03-03T14:08:07;18.20;32.20
78028;DHT22;67235;45.638;11.714;2023-03-03T14:17:02;17.80;33.90
78028;DHT22;67235;45.638;11.714;2023-03-03T14:19:46;17.70;34.90
78028;DHT22;67235;45.638;11.714;2023-03-03T14:22:23;17.70;33.90
78028;DHT22;67235;45.638;11.714;2023-03-03T14:35:41;17.70;34.90
78028;DHT22;67235;45.638;11.714;2023-03-03T14:38:11;18.00;33.00
78028;DHT22;67235;45.638;11.714;2023-03-03T14:40:38;18.00;33.60
78028;DHT22;67235;45.638;11.714;2023-03-03T14:43:25;18.20;32.80
78028;DHT22;67235;45.638;11.714;2023-03-03T14:45:52;18.30;31.60
78028;DHT22;67235;45.638;11.714;2023-03-03T14:48:24;18.40;31.30
78028;DHT22;67235;45.638;11.714;2023-03-03T14:50:57;18.30;33.10
78028;DHT22;67235;45.638;11.714;2023-03-03T14:53:38;18.30;32.50
78028;DHT22;67235;45.638;11.714;2023-03-03T14:56:28;18.20;32.00
78028;DHT22;67235;45.638;11.714;2023-03-03T14:59:21;18.40;31.10
78028;DHT22;67235;45.638;11.714;2023-03-03T15:01:59;18.40;33.10
78028;DHT22;67235;45.638;11.714;2023-03-03T15:04:27;17.40;34.90
78028;DHT22;67235;45.638;11.714;2023-03-03T15:06:55;17.40;34.20
78028;DHT22;67235;45.638;11.714;2023-03-03T15:09:27;17.30;34.60
78028;DHT22;67235;45.638;11.714;2023-03-03T15:11:56;17.20;33.70
78028;DHT22;67235;45.638;11.714;2023-03-03T15:14:44;17.00;35.50
78028;DHT22;67235;45.638;11.714;2023-03-03T15:17:23;17.00;36.40
78028;DHT22;67235;45.638;11.714;2023-03-03T15:22:49;16.80;35.10
78028;DHT22;67235;45.638;11.714;2023-03-03T15:30:38;17.00;36.10
78028;DHT22;67235;45.638;11.714;2023-03-03T15:36:27;16.80;34.90
78028;DHT22;67235;45.638;11.714;2023-03-03T15:39:12;16.80;35.10
78028;DHT22;67235;45.638;11.714;2023-03-03T15:47:16;16.20;39.50
78028;DHT22;67235;45.638;11.714;2023-03-03T15:52:51;16.20;39.40
78028;DHT22;67235;45.638;11.714;2023-03-03T15:56:08;16.20;39.20
78028;DHT22;67235;45.638;11.714;2023-03-03T16:09:33;15.80;38.60
78028;DHT22;67235;45.638;11.714;2023-03-03T16:12:24;15.80;38.90
78028;DHT22;67235;45.638;11.714;2023-03-03T16:15:14;15.70;40.20
78028;DHT22;67235;45.638;11.714;2023-03-03T16:17:53;15.70;39.10
78028;DHT22;67235;45.638;11.714;2023-03-03T16:20:59;15.70;39.70
78028;DHT22;67235;45.638;11.714;2023-03-03T16:23:48;15.50;41.00
78028;DHT22;67235;45.638;11.714;2023-03-03T16:26:42;15.40;43.00
78028;DHT22;67235;45.638;11.714;2023-03-03T16:29:25;15.40;44.90
78028;DHT22;67235;45.638;11.714;2023-03-03T16:32:22;15.10;44.60
78028;DHT22;67235;45.638;11.714;2023-03-03T16:35:22;15.10;44.60
78028;DHT22;67235;45.638;11.714;2023-03-03T16:38:05;15.00;48.40
78028;DHT22;67235;45.638;11.714;2023-03-03T16:40:54;15.00;46.30
78028;DHT22;67235;45.638;11.714;2023-03-03T16:44:03;14.70;47.90
78028;DHT22;67235;45.638;11.714;2023-03-03T16:46:47;14.50;47.40
78028;DHT22;67235;45.638;11.714;2023-03-03T16:49:26;14.40;47.90
78028;DHT22;67235;45.638;11.714;2023-03-03T16:52:11;14.20;47.20
78028;DHT22;67235;45.638;11.714;2023-03-03T16:54:58;14.10;45.90
78028;DHT22;67235;45.638;11.714;2023-03-03T16:57:45;14.00;47.10
78028;DHT22;67235;45.638;11.714;2023-03-03T17:00:14;13.90;48.60
78028;DHT22;67235;45.638;11.714;2023-03-03T17:05:59;13.60;48.20
78028;DHT22;67235;45.638;11.714;2023-03-03T17:14:32;13.30;49.50
78028;DHT22;67235;45.638;11.714;2023-03-03T17:17:22;13.30;49.90
78028;DHT22;67235;45.638;11.714;2023-03-03T17:20:01;13.10;62.10
78028;DHT22;67235;45.638;11.714;2023-03-03T17:22:57;13.00;63.00
78028;DHT22;67235;45.638;11.714;2023-03-03T17:32:11;12.70;63.00
78028;DHT22;67235;45.638;11.714;2023-03-03T17:35:13;12.50;64.60
78028;DHT22;67235;45.638;11.714;2023-03-03T17:47:03;12.10;64.30
78028;DHT22;67235;45.638;11.714;2023-03-03T17:50:19;12.00;66.00
78028;DHT22;67235;45.638;11.714;2023-03-03T18:11:37;10.80;65.70
78028;DHT22;67235;45.638;11.714;2023-03-03T18:14:39;10.60;65.90
78028;DHT22;67235;45.638;11.714;2023-03-03T18:26:39;10.00;66.40
78028;DHT22;67235;45.638;11.714;2023-03-03T18:29:34;9.90;67.40
78028;DHT22;67235;45.638;11.714;2023-03-03T18:32:22;9.90;67.60
78028;DHT22;67235;45.638;11.714;2023-03-03T18:37:42;9.90;67.60
78028;DHT22;67235;45.638;11.714;2023-03-03T18:40:47;9.80;67.60
78028;DHT22;67235;45.638;11.714;2023-03-03T18:52:21;9.60;67.30
78028;DHT22;67235;45.638;11.714;2023-03-03T19:09:05;9.00;67.80
78028;DHT22;67235;45.638;11.714;2023-03-03T19:11:56;9.20;67.60
78028;DHT22;67235;45.638;11.714;2023-03-03T19:14:50;9.30;67.60
78028;DHT22;67235;45.638;11.714;2023-03-03T19:20:23;9.30;67.40
78028;DHT22;67235;45.638;11.714;2023-03-03T19:23:01;9.40;67.10
78028;DHT22;67235;45.638;11.714;2023-03-03T19:32:54;9.30;67.50
78028;DHT22;67235;45.638;11.714;2023-03-03T19:35:14;9.40;67.30
78028;DHT22;67235;45.638;11.714;2023-03-03T19:41:25;9.10;68.20
78028;DHT22;67235;45.638;11.714;2023-03-03T19:50:24;8.70;68.20
78028;DHT22;67235;45.638;11.714;2023-03-03T19:55:53;8.60;69.40
78028;DHT22;67235;45.638;11.714;2023-03-03T19:58:43;8.40;69.80
78028;DHT22;67235;45.638;11.714;2023-03-03T20:08:51;8.10;68.70
78028;DHT22;67235;45.638;11.714;2023-03-03T20:42:17;7.80;69.60
78028;DHT22;67235;45.638;11.714;2023-03-03T20:51:08;7.90;69.90
78028;DHT22;67235;45.638;11.714;2023-03-03T21:00:20;7.90;70.00
78028;DHT22;67235;45.638;11.714;2023-03-03T21:03:12;7.90;70.00
78028;DHT22;67235;45.638;11.714;2023-03-03T21:06:06;7.90;70.70
78028;DHT22;67235;45.638;11.714;2023-03-03T21:27:22;7.60;70.50
78028;DHT22;67235;45.638;11.714;2023-03-03T21:52:54;7.60;70.50
78028;DHT22;67235;45.638;11.714;2023-03-03T21:55:20;7.50;70.80
78028;DHT22;67235;45.638;11.714;2023-03-03T21:57:46;7.30;71.30
78028;DHT22;67235;45.638;11.714;2023-03-03T22:00:12;7.50;71.30
78028;DHT22;67235;45.638;11.714;2023-03-03T22:02:38;7.50;70.80
78028;DHT22;67235;45.638;11.714;2023-03-03T22:05:04;7.30;70.10
78028;DHT22;67235;45.638;11.714;2023-03-03T22:07:32;7.30;70.10
78028;DHT22;67235;45.638;11.714;2023-03-03T22:09:58;7.20;70.30
78028;DHT22;67235;45.638;11.714;2023-03-03T22:12:24;7.00;70.00
78028;DHT22;67235;45.638;11.714;2023-03-03T22:14:50;7.10;70.20
78028;DHT22;67235;45.638;11.714;2023-03-03T22:17:16;7.00;70.30
78028;DHT22;67235;45.638;11.714;2023-03-03T22:19:41;7.10;70.20
78028;DHT22;67235;45.638;11.714;2023-03-03T22:22:07;7.10;70.70
78028;DHT22;67235;45.638;11.714;2023-03-03T22:24:33;7.10;71.50
78028;DHT22;67235;45.638;11.714;2023-03-03T22:26:59;7.00;71.40
78028;DHT22;67235;45.638;11.714;2023-03-03T22:29:25;7.10;71.20
78028;DHT22;67235;45.638;11.714;2023-03-03T22:31:51;7.10;71.20
78028;DHT22;67235;45.638;11.714;2023-03-03T22:34:17;7.10;70.70
78028;DHT22;67235;45.638;11.714;2023-03-03T22:36:42;6.90;69.40
78028;DHT22;67235;45.638;11.714;2023-03-03T22:39:08;6.70;69.30
78028;DHT22;67235;45.638;11.714;2023-03-03T22:41:34;6.80;70.00
78028;DHT22;67235;45.638;11.714;2023-03-03T22:44:00;6.70;70.70
78028;DHT22;67235;45.638;11.714;2023-03-03T22:46:26;6.60;70.10
78028;DHT22;67235;45.638;11.714;2023-03-03T22:48:53;6.70;70.20
78028;DHT22;67235;45.638;11.714;2023-03-03T22:51:19;6.60;70.80
78028;DHT22;67235;45.638;11.714;2023-03-03T22:53:46;6.60;71.00
78028;DHT22;67235;45.638;11.714;2023-03-03T22:56:12;6.60;70.90
78028;DHT22;67235;45.638;11.714;2023-03-03T22:58:38;6.60;70.00
78028;DHT22;67235;45.638;11.714;2023-03-03T23:01:04;6.30;70.50
78028;DHT22;67235;45.638;11.714;2023-03-03T23:03:30;6.40;71.00
78028;DHT22;67235;45.638;11.714;2023-03-03T23:05:57;6.30;71.00
78028;DHT22;67235;45.638;11.714;2023-03-03T23:08:23;6.30;70.70
78028;DHT22;67235;45.638;11.714;2023-03-03T23:10:49;6.30;70.70
78028;DHT22;67235;45.638;11.714;2023-03-03T23:13:15;6.00;71.20
78028;DHT22;67235;45.638;11.714;2023-03-03T23:15:41;6.30;71.70
78028;DHT22;67235;45.638;11.714;2023-03-03T23:18:07;6.40;71.90
78028;DHT22;67235;45.638;11.714;2023-03-03T23:20:33;6.40;71.90
78028;DHT22;67235;45.638;11.714;2023-03-03T23:22:59;6.40;71.30
78028;DHT22;67235;45.638;11.714;2023-03-03T23:25:25;6.20;70.60
78028;DHT22;67235;45.638;11.714;2023-03-03T23:27:53;6.20;70.40
78028;DHT22;67235;45.638;11.714;2023-03-03T23:30:19;6.20;70.40
78028;DHT22;67235;45.638;11.714;2023-03-03T23:32:46;6.10;70.30
78028;DHT22;67235;45.638;11.714;2023-03-03T23:35:12;6.20;70.60
78028;DHT22;67235;45.638;11.714;2023-03-03T23:37:38;6.00;70.20
78028;DHT22;67235;45.638;11.714;2023-03-03T23:40:05;6.20;70.70
78028;DHT22;67235;45.638;11.714;2023-03-03T23:42:31;6.00;70.80
78028;DHT22;67235;45.638;11.714;2023-03-03T23:44:57;6.10;70.40
78028;DHT22;67235;45.638;11.714;2023-03-03T23:47:23;6.00;70.10
78028;DHT22;67235;45.638;11.714;2023-03-03T23:49:49;6.20;70.60
78028;DHT22;67235;45.638;11.714;2023-03-03T23:52:15;6.30;71.00
78028;DHT22;67235;45.638;11.714;2023-03-03T23:54:43;6.20;70.40
78028;DHT22;67235;45.638;11.714;2023-03-03T23:57:08;6.20;70.30
78028;DHT22;67235;45.638;11.714;2023-03-03T23:59:34;6.30;70.40
